Time;durP1;ratioP1;P1;durP2;ratioP2;P2;SDS_P1;SDS_P2;PMS_P1;PMS_P2;Temp;Humidity;BMP_temperature;BMP_pressure;BME280_temperature;BME280_humidity;BME280_pressure;Samples;Min_cycle;Max_cycle;Signal;HPM_P1;HPM_P2
2023/10/30 00:02:55;;;;;;;125.05;45.83;;;;;;;12.71;55.30;100691.63;1744903;81;21324;-81
2023/10/30 00:06:02;;;;;;;79.95;34.50;;;;;;;12.60;55.31;100681.04;1742487;81;21342;-81
2023/10/30 00:09:09;;;;;;;87.02;35.60;;;;;;;12.49;55.71;100676.83;1749147;81;21853;-81
2023/10/30 00:12:15;;;;;;;90.57;36.35;;;;;;;12.53;56.42;100683.14;1747857;81;21337;-81
2023/10/30 00:15:23;;;;;;;102.35;39.98;;;;;;;12.63;56.46;100686.18;1734582;81;21338;-80
2023/10/30 00:18:29;;;;;;;94.47;43.15;;;;;;;12.57;56.68;100689.66;1734714;81;21300;-82
2023/10/30 00:21:34;;;;;;;108.87;37.70;;;;;;;12.57;56.70;100699.26;1744888;81;21336;-82
2023/10/30 00:24:40;;;;;;;100.27;39.80;;;;;;;12.43;57.34;100703.09;1727808;81;21357;-82
2023/10/30 00:27:46;;;;;;;92.75;39.05;;;;;;;12.57;56.48;100696.52;1721668;82;21341;-82
2023/10/30 00:30:53;;;;;;;70.78;31.82;;;;;;;12.64;56.62;100693.37;1724277;82;21928;-82
2023/10/30 00:33:58;;;;;;;123.50;48.92;;;;;;;12.71;57.20;100689.73;1727480;81;21896;-80
2023/10/30 00:37:04;;;;;;;112.57;46.90;;;;;;;12.83;57.41;100687.41;1740047;81;21337;-82
2023/10/30 00:40:10;;;;;;;103.50;42.95;;;;;;;12.89;56.88;100694.94;1736946;81;21341;-82
2023/10/30 00:43:16;;;;;;;67.27;29.65;;;;;;;13.02;56.43;100688.82;1728271;82;21357;-82
2023/10/30 00:46:21;;;;;;;52.08;28.25;;;;;;;12.95;57.01;100694.20;1724063;81;21341;-82
2023/10/30 00:49:28;;;;;;;51.20;27.65;;;;;;;12.81;57.73;100697.73;1718136;82;21943;-80
2023/10/30 00:52:33;;;;;;;46.75;25.92;;;;;;;12.73;58.10;100706.02;1733147;82;21304;-81
2023/10/30 00:55:40;;;;;;;59.42;26.68;;;;;;;12.76;58.01;100700.17;1721696;82;21345;-80
2023/10/30 00:58:46;;;;;;;46.02;24.77;;;;;;;12.90;57.53;100702.66;1733186;82;21322;-81
2023/10/30 01:01:52;;;;;;;51.20;25.52;;;;;;;12.97;57.58;100698.98;1738234;81;21884;-80
2023/10/30 01:04:58;;;;;;;63.20;27.58;;;;;;;12.92;57.60;100697.30;1741917;81;21373;-80
2023/10/30 01:08:08;;;;;;;59.42;28.85;;;;;;;12.94;57.32;100699.89;1734689;81;21424;-81
2023/10/30 01:11:16;;;;;;;61.70;29.42;;;;;;;12.78;57.14;100700.30;1720901;82;21365;-81
2023/10/30 01:14:22;;;;;;;55.33;27.52;;;;;;;12.87;56.55;100697.00;1738045;81;21943;-81
2023/10/30 01:17:27;;;;;;;56.18;26.30;;;;;;;12.93;56.40;100700.38;1746188;81;21320;-81
2023/10/30 01:20:34;;;;;;;47.90;23.42;;;;;;;12.91;56.07;100694.75;1735564;82;21343;-81
2023/10/30 01:23:39;;;;;;;42.30;22.17;;;;;;;12.79;56.16;100698.41;1746183;81;21461;-81
2023/10/30 01:26:46;;;;;;;49.75;22.67;;;;;;;12.86;55.92;100700.78;1741926;82;21930;-80
2023/10/30 01:29:53;;;;;;;90.40;36.13;;;;;;;12.82;55.58;100706.30;1737143;80;21344;-80
2023/10/30 01:32:58;;;;;;;76.90;36.13;;;;;;;12.78;55.50;100701.68;1754774;81;21919;-80
2023/10/30 01:36:05;;;;;;;147.82;52.00;;;;;;;12.70;56.11;100706.36;1727174;82;21349;-80
2023/10/30 01:39:11;;;;;;;91.42;39.38;;;;;;;12.56;56.06;100701.12;1742430;81;21321;-80
2023/10/30 01:42:16;;;;;;;90.28;36.65;;;;;;;12.58;55.36;100699.07;1737021;81;21321;-80
2023/10/30 01:45:23;;;;;;;68.12;29.65;;;;;;;12.52;55.59;100708.88;1738424;81;21397;-80
2023/10/30 01:48:30;;;;;;;57.95;26.23;;;;;;;12.56;55.43;100701.12;1755259;81;21361;-80
2023/10/30 01:51:37;;;;;;;49.18;25.90;;;;;;;12.57;55.63;100704.23;1745780;81;21320;-81
2023/10/30 01:54:42;;;;;;;44.65;23.73;;;;;;;12.64;56.17;100707.09;1742248;81;21352;-81
2023/10/30 01:57:48;;;;;;;42.43;23.18;;;;;;;12.68;56.81;100708.45;1735501;81;21864;-81
2023/10/30 02:00:54;;;;;;;59.40;26.77;;;;;;;12.71;56.52;100708.09;1755030;81;21381;-81
2023/10/30 02:03:59;;;;;;;69.07;30.82;;;;;;;12.79;56.50;100708.88;1748005;81;21352;-81
2023/10/30 02:07:06;;;;;;;59.55;29.30;;;;;;;12.86;55.85;100702.68;1752566;81;21892;-80
2023/10/30 02:10:13;;;;;;;45.63;24.47;;;;;;;12.77;55.62;100699.98;1728164;81;21337;-82
2023/10/30 02:13:19;;;;;;;47.60;24.35;;;;;;;12.87;55.32;100698.89;1736286;81;21329;-82
2023/10/30 02:16:25;;;;;;;49.90;23.10;;;;;;;12.75;56.03;100691.58;1739569;81;21352;-82
2023/10/30 02:19:33;;;;;;;52.85;24.70;;;;;;;12.74;57.26;100688.50;1741960;81;21915;-82
2023/10/30 02:22:39;;;;;;;54.88;27.45;;;;;;;12.88;57.89;100700.08;1743207;81;21911;-81
2023/10/30 02:25:44;;;;;;;57.20;26.25;;;;;;;12.85;58.25;100693.59;1739460;81;21336;-83
2023/10/30 02:28:52;;;;;;;52.62;27.25;;;;;;;12.81;57.87;100686.75;1739144;81;22344;-81
2023/10/30 02:31:58;;;;;;;53.45;24.57;;;;;;;12.80;58.23;100690.55;1744653;81;21333;-81
2023/10/30 02:35:04;;;;;;;49.80;26.15;;;;;;;12.85;58.64;100693.59;1742850;81;21904;-81
2023/10/30 02:38:10;;;;;;;56.23;27.48;;;;;;;12.83;59.47;100688.78;1741280;81;21349;-81
2023/10/30 02:41:15;;;;;;;67.25;29.30;;;;;;;12.89;59.64;100693.57;1733945;81;21352;-80
2023/10/30 02:44:21;;;;;;;72.22;30.97;;;;;;;12.99;59.43;100698.82;1736091;81;21646;-81
2023/10/30 02:47:28;;;;;;;120.10;44.50;;;;;;;13.23;58.89;100704.67;1740761;81;21333;-81
2023/10/30 02:50:34;;;;;;;150.18;56.18;;;;;;;13.26;58.48;100709.26;1751760;81;21360;-81
2023/10/30 02:53:40;;;;;;;136.57;56.23;;;;;;;13.19;57.98;100708.79;1753486;81;21353;-81
2023/10/30 02:56:46;;;;;;;134.18;50.10;;;;;;;13.09;57.73;100716.42;1743661;81;21330;-81
2023/10/30 02:59:51;;;;;;;152.87;57.95;;;;;;;13.05;57.33;100722.27;1743754;81;21329;-81
2023/10/30 03:02:56;;;;;;;151.93;57.62;;;;;;;13.05;56.58;100724.16;1749384;81;21664;-81
2023/10/30 03:06:02;;;;;;;128.82;49.00;;;;;;;12.81;56.46;100724.34;1738199;81;21332;-81
2023/10/30 03:09:08;;;;;;;116.73;47.60;;;;;;;12.83;56.35;100727.22;1754838;81;21352;-81
2023/10/30 03:12:14;;;;;;;108.07;45.98;;;;;;;12.73;56.54;100727.97;1748539;81;21328;-81
2023/10/30 03:15:21;;;;;;;127.95;50.78;;;;;;;12.56;56.52;100730.45;1752660;81;21345;-82
2023/10/30 03:18:27;;;;;;;110.92;43.42;;;;;;;12.67;56.04;100738.30;1750509;81;22125;-81
2023/10/30 03:21:34;;;;;;;107.97;44.42;;;;;;;12.63;55.81;100739.69;1750186;81;21376;-81
2023/10/30 03:24:40;;;;;;;153.90;57.98;;;;;;;12.39;56.39;100742.88;1753782;81;21963;-81
2023/10/30 03:27:46;;;;;;;157.37;63.80;;;;;;;12.41;56.26;100738.06;1755041;81;21364;-81
2023/10/30 03:30:52;;;;;;;164.72;63.55;;;;;;;12.40;55.97;100736.36;1754015;81;21387;-81
2023/10/30 03:33:57;;;;;;;119.05;51.90;;;;;;;12.42;55.71;100736.17;1749479;81;22168;-81
2023/10/30 03:37:03;;;;;;;115.95;43.58;;;;;;;12.38;55.72;100739.81;1753832;81;21337;-81
2023/10/30 03:40:08;;;;;;;94.50;38.10;;;;;;;12.42;55.50;100728.83;1753834;81;21364;-81
2023/10/30 03:43:15;;;;;;;102.07;36.95;;;;;;;12.41;55.57;100724.34;1751808;81;21352;-81
2023/10/30 03:46:20;;;;;;;79.77;33.75;;;;;;;12.43;55.71;100718.19;1737697;81;21325;-81
2023/10/30 03:49:27;;;;;;;61.48;31.02;;;;;;;12.46;55.84;100719.17;1745391;81;21313;-81
2023/10/30 03:52:32;;;;;;;62.13;28.30;;;;;;;12.37;56.73;100716.13;1742431;81;21903;-81
2023/10/30 03:55:41;;;;;;;65.97;28.00;;;;;;;12.47;57.07;100716.80;1748349;81;21329;-81
2023/10/30 03:58:47;;;;;;;79.82;37.23;;;;;;;12.57;57.20;100720.69;1728006;82;21370;-81
2023/10/30 04:01:51;;;;;;;91.70;41.85;;;;;;;12.57;57.56;100717.95;1721856;82;21346;-81
2023/10/30 04:04:58;;;;;;;77.80;32.15;;;;;;;12.65;57.40;100716.50;1706358;81;21349;-81
2023/10/30 04:08:03;;;;;;;53.55;24.23;;;;;;;12.77;57.23;100710.11;1730823;82;21392;-81
2023/10/30 04:11:18;;;;;;;43.58;19.95;;;;;;;12.82;57.50;100702.70;1729988;82;21345;-81
2023/10/30 04:14:24;;;;;;;39.05;20.20;;;;;;;12.66;58.59;100704.52;1732685;81;21405;-81
2023/10/30 04:17:29;;;;;;;51.42;26.20;;;;;;;12.59;59.23;100709.00;1750030;81;21392;-81
2023/10/30 04:20:35;;;;;;;63.90;26.77;;;;;;;12.68;59.39;100716.16;1747045;81;21361;-81
2023/10/30 04:23:42;;;;;;;49.83;25.85;;;;;;;12.77;58.78;100719.72;1746434;81;21325;-81
2023/10/30 04:26:49;;;;;;;46.35;22.50;;;;;;;12.81;58.28;100722.96;1734054;82;21323;-81
2023/10/30 04:29:54;;;;;;;41.80;21.95;;;;;;;12.82;57.89;100728.78;1736097;82;21352;-81
2023/10/30 04:33:00;;;;;;;38.88;20.48;;;;;;;12.88;57.48;100715.69;1743179;81;21919;-81
2023/10/30 04:36:12;;;;;;;35.45;19.77;;;;;;;12.82;57.68;100727.41;1724405;81;21916;-81
2023/10/30 04:39:19;;;;;;;48.95;19.25;;;;;;;12.97;57.68;100737.42;1734899;81;21928;-81
2023/10/30 04:42:24;;;;;;;40.55;20.55;;;;;;;12.86;58.08;100741.97;1731525;81;21377;-81
2023/10/30 04:45:30;;;;;;;56.80;24.20;;;;;;;12.93;57.82;100741.56;1734742;80;21322;-81
2023/10/30 04:48:35;;;;;;;51.28;23.47;;;;;;;13.03;57.33;100740.84;1745657;81;21348;-81
2023/10/30 04:51:41;;;;;;;48.98;23.67;;;;;;;13.08;57.14;100738.92;1747543;81;21962;-81
2023/10/30 04:54:46;;;;;;;41.53;18.98;;;;;;;12.96;57.12;100750.82;1737262;81;21357;-81
2023/10/30 04:57:53;;;;;;;35.15;17.00;;;;;;;13.01;56.91;100737.40;1731889;82;21347;-81
2023/10/30 05:00:59;;;;;;;33.18;17.20;;;;;;;13.09;57.34;100730.16;1754522;81;21356;-81
2023/10/30 05:04:04;;;;;;;30.82;16.20;;;;;;;13.16;57.93;100725.63;1743366;81;21897;-81
2023/10/30 05:07:10;;;;;;;31.85;16.17;;;;;;;13.28;58.09;100728.33;1727693;82;21321;-81
2023/10/30 05:10:15;;;;;;;29.52;15.53;;;;;;;13.32;58.57;100732.42;1741259;81;22042;-82
2023/10/30 05:13:21;;;;;;;37.45;16.82;;;;;;;13.45;58.40;100734.00;1739606;81;21891;-81
2023/10/30 05:16:26;;;;;;;36.48;18.77;;;;;;;13.44;58.81;100735.56;1739777;81;21352;-81
2023/10/30 05:19:32;;;;;;;35.80;17.45;;;;;;;13.64;58.62;100727.66;1748301;81;21336;-81
2023/10/30 05:22:37;;;;;;;38.00;17.67;;;;;;;13.71;58.64;100736.36;1746778;81;22061;-81
2023/10/30 05:25:43;;;;;;;30.37;17.17;;;;;;;13.95;58.05;100742.13;1755699;81;21907;-81
2023/10/30 05:28:48;;;;;;;33.73;18.40;;;;;;;14.18;57.57;100743.95;1748359;81;21328;-81
2023/10/30 05:31:54;;;;;;;36.53;18.50;;;;;;;14.22;57.09;100748.89;1741627;81;21352;-81
2023/10/30 05:35:00;;;;;;;36.10;18.27;;;;;;;14.25;56.80;100747.64;1751395;81;21900;-81
2023/10/30 05:38:06;;;;;;;34.27;18.07;;;;;;;14.27;57.02;100750.55;1744831;81;21324;-81
2023/10/30 05:41:11;;;;;;;33.75;17.35;;;;;;;14.32;57.20;100754.95;1737965;81;21915;-81
2023/10/30 05:44:17;;;;;;;38.35;19.57;;;;;;;14.39;57.34;100757.79;1749936;81;21345;-81
2023/10/30 05:47:22;;;;;;;35.95;18.15;;;;;;;14.35;57.87;100760.61;1738150;81;21322;-81
2023/10/30 05:50:27;;;;;;;39.03;18.70;;;;;;;14.52;57.45;100765.41;1735182;81;21920;-81
2023/10/30 05:53:33;;;;;;;41.83;19.37;;;;;;;14.56;57.43;100772.25;1711582;83;21905;-81
2023/10/30 05:56:41;;;;;;;33.80;17.52;;;;;;;14.56;57.37;100777.75;1729899;82;21902;-81
2023/10/30 05:59:47;;;;;;;33.18;17.55;;;;;;;14.51;57.42;100771.97;1724088;82;21974;-81
2023/10/30 06:02:54;;;;;;;40.10;18.70;;;;;;;14.57;57.43;100775.33;1735061;82;21382;-81
2023/10/30 06:06:01;;;;;;;38.50;17.77;;;;;;;14.54;57.73;100780.71;1747378;80;21318;-81
2023/10/30 06:09:07;;;;;;;47.45;16.90;;;;;;;14.62;57.62;100778.88;1744421;81;22587;-80
2023/10/30 06:12:15;;;;;;;40.05;15.68;;;;;;;14.67;57.59;100773.66;1753348;81;21331;-81
2023/10/30 06:15:21;;;;;;;32.73;16.02;;;;;;;14.79;57.58;100775.73;1753082;81;21318;-80
2023/10/30 06:18:27;;;;;;;28.32;15.03;;;;;;;14.88;57.47;100779.77;1750949;81;22246;-81
2023/10/30 06:21:33;;;;;;;35.03;16.20;;;;;;;15.06;57.35;100782.42;1772367;80;21363;-81
2023/10/30 06:24:39;;;;;;;40.43;17.85;;;;;;;15.18;57.30;100789.64;1761124;79;21797;-81
2023/10/30 06:27:46;;;;;;;41.25;19.37;;;;;;;15.42;57.09;100783.43;1731897;81;21359;-81
2023/10/30 06:30:51;;;;;;;36.03;17.60;;;;;;;15.59;56.97;100774.70;1771887;79;22162;-82
2023/10/30 06:33:56;;;;;;;34.33;17.67;;;;;;;15.79;56.83;100782.33;1743367;80;21338;-82
2023/10/30 06:37:03;;;;;;;33.80;17.40;;;;;;;16.05;56.54;100787.22;1775253;80;21327;-82
2023/10/30 06:40:09;;;;;;;31.05;16.87;;;;;;;16.13;56.73;100797.23;1735835;80;21346;-81
2023/10/30 06:43:15;;;;;;;35.33;17.70;;;;;;;16.36;56.17;100800.59;1738631;80;21342;-81
2023/10/30 06:46:21;;;;;;;33.65;17.52;;;;;;;16.58;55.86;100796.70;1739332;80;21315;-80
2023/10/30 06:49:26;;;;;;;32.48;15.58;;;;;;;16.79;55.23;100799.05;1739946;80;21372;-80
2023/10/30 06:52:32;;;;;;;38.10;14.65;;;;;;;16.86;54.74;100806.86;1769197;79;21480;-82
2023/10/30 06:55:50;;;;;;;28.05;13.68;;;;;;;16.99;54.51;100805.55;1744195;80;21953;-81
2023/10/30 06:58:55;;;;;;;24.90;13.28;;;;;;;17.00;54.77;100807.24;1738267;80;21327;-80
2023/10/30 07:02:02;;;;;;;24.23;13.38;;;;;;;17.05;54.62;100804.70;1752262;80;21719;-81
2023/10/30 07:05:09;;;;;;;28.17;13.58;;;;;;;17.25;54.08;100810.30;1740484;80;21329;-80
2023/10/30 07:08:15;;;;;;;29.75;13.55;;;;;;;17.47;53.92;100806.01;1743467;80;21386;-80
2023/10/30 07:11:22;;;;;;;20.32;11.60;;;;;;;17.78;53.55;100804.89;1727999;81;21359;-83
2023/10/30 07:14:28;;;;;;;23.55;12.03;;;;;;;17.78;53.81;100794.36;1734407;81;21335;-81
2023/10/30 07:17:37;;;;;;;22.52;12.50;;;;;;;17.96;53.27;100798.73;1729594;80;21400;-81
2023/10/30 07:20:43;;;;;;;21.65;11.30;;;;;;;18.23;52.69;100797.34;1769192;79;21331;-82
2023/10/30 07:23:50;;;;;;;23.55;11.93;;;;;;;18.40;52.21;100802.77;1740787;80;21357;-80
2023/10/30 07:26:57;;;;;;;21.15;11.33;;;;;;;18.48;52.27;100805.28;1735756;81;21335;-81
2023/10/30 07:30:03;;;;;;;22.58;9.38;;;;;;;18.45;52.42;100802.96;1737457;81;21307;-81
2023/10/30 07:33:10;;;;;;;20.65;10.63;;;;;;;18.43;52.13;100798.16;1721776;81;21327;-79
2023/10/30 07:36:16;;;;;;;21.45;11.08;;;;;;;18.44;51.98;100799.00;1723634;81;21322;-80
2023/10/30 07:39:23;;;;;;;23.10;10.93;;;;;;;18.46;51.87;100797.73;1731258;81;21353;-80
2023/10/30 07:42:29;;;;;;;19.73;10.90;;;;;;;18.62;51.53;100797.79;1741242;80;21343;-81
2023/10/30 07:45:35;;;;;;;17.57;11.03;;;;;;;18.69;51.25;100800.05;1733660;80;21342;-80
2023/10/30 07:48:42;;;;;;;18.17;9.98;;;;;;;18.74;50.98;100786.94;1722341;80;21303;-81
2023/10/30 07:51:48;;;;;;;20.35;10.20;;;;;;;18.80;50.79;100791.59;1750189;80;21946;-80
2023/10/30 07:54:55;;;;;;;25.10;10.63;;;;;;;18.83;50.74;100785.63;1715666;81;22766;-80
2023/10/30 07:58:02;;;;;;;18.45;10.45;;;;;;;18.98;50.71;100787.58;1727602;80;21351;-80
2023/10/30 08:01:08;;;;;;;15.75;9.50;;;;;;;19.13;50.78;100790.91;1726997;81;21363;-81
2023/10/30 08:04:15;;;;;;;20.70;10.15;;;;;;;19.26;50.66;100785.84;1732842;81;21317;-81
2023/10/30 08:07:21;;;;;;;18.05;9.68;;;;;;;19.34;50.66;100782.81;1733779;80;21315;-81
2023/10/30 08:10:28;;;;;;;18.70;10.60;;;;;;;19.40;50.44;100783.30;1761651;79;22497;-79
2023/10/30 08:13:33;;;;;;;22.85;8.90;;;;;;;19.58;49.78;100778.39;1735931;81;21380;-81
2023/10/30 08:16:39;;;;;;;23.52;8.35;;;;;;;19.66;48.65;100780.89;1734291;80;21892;-80
2023/10/30 08:19:47;;;;;;;15.55;8.03;;;;;;;19.66;48.02;100773.96;1733126;80;21554;-80
2023/10/30 08:22:54;;;;;;;22.52;9.00;;;;;;;19.56;48.05;100776.35;1736297;79;21321;-81
2023/10/30 08:25:59;;;;;;;17.80;8.20;;;;;;;19.46;48.12;100780.16;1741975;81;21350;-80
2023/10/30 08:29:06;;;;;;;17.65;8.13;;;;;;;19.48;48.01;100784.09;1735220;80;21330;-79
2023/10/30 08:32:11;;;;;;;18.60;7.85;;;;;;;19.41;48.18;100779.45;1720110;81;21338;-80
2023/10/30 08:35:17;;;;;;;24.27;9.63;;;;;;;19.40;48.32;100781.91;1759276;80;22147;-79
2023/10/30 08:38:23;;;;;;;20.97;7.80;;;;;;;19.46;48.64;100777.93;1718759;81;21855;-79
2023/10/30 08:41:29;;;;;;;15.10;7.33;;;;;;;19.55;48.64;100769.11;1742227;81;21297;-80
2023/10/30 08:44:35;;;;;;;13.20;6.70;;;;;;;19.65;48.67;100772.81;1729478;80;21283;-79
2023/10/30 08:47:41;;;;;;;11.80;6.00;;;;;;;19.83;48.75;100769.27;1736538;81;21298;-80
2023/10/30 08:50:46;;;;;;;12.53;5.72;;;;;;;19.99;48.40;100765.05;1719149;81;21350;-80
2023/10/30 08:53:52;;;;;;;15.43;5.25;;;;;;;20.07;48.17;100769.79;1739422;81;21306;-79
2023/10/30 08:56:58;;;;;;;12.23;4.83;;;;;;;19.99;47.74;100766.45;1736060;80;21358;-80
2023/10/30 09:00:08;;;;;;;12.60;5.87;;;;;;;20.17;47.33;100757.61;1736475;81;21311;-80
2023/10/30 09:03:14;;;;;;;12.78;4.97;;;;;;;20.38;47.13;100749.41;1723156;80;21342;-81
2023/10/30 09:06:21;;;;;;;16.70;5.45;;;;;;;20.62;46.57;100746.28;1725991;81;21308;-80
2023/10/30 09:09:28;;;;;;;11.25;4.75;;;;;;;20.76;45.90;100744.73;1740622;80;22320;-81
2023/10/30 09:12:33;;;;;;;7.85;3.85;;;;;;;21.01;44.96;100736.27;1726347;80;21359;-81
2023/10/30 09:15:38;;;;;;;7.70;3.95;;;;;;;21.26;43.85;100736.97;1735504;80;22266;-81
2023/10/30 09:18:44;;;;;;;11.08;4.15;;;;;;;21.31;43.94;100728.79;1716668;81;21425;-81
2023/10/30 09:21:50;;;;;;;9.35;4.85;;;;;;;21.34;43.86;100720.52;1747213;80;21378;-81
2023/10/30 09:24:57;;;;;;;9.53;3.98;;;;;;;21.38;43.73;100725.37;1726493;81;21312;-80
2023/10/30 09:28:03;;;;;;;9.35;4.37;;;;;;;21.51;43.28;100718.77;1735151;80;21937;-80
2023/10/30 09:31:08;;;;;;;13.22;4.95;;;;;;;21.73;42.72;100714.85;1728073;80;21366;-81
2023/10/30 09:34:14;;;;;;;6.92;3.60;;;;;;;21.80;43.04;100715.60;1728457;81;21938;-80
2023/10/30 09:37:22;;;;;;;12.95;3.55;;;;;;;21.89;42.30;100707.75;1730825;80;21343;-80
2023/10/30 09:40:27;;;;;;;10.23;3.58;;;;;;;21.84;42.19;100714.58;1742302;80;21320;-80
2023/10/30 09:43:37;;;;;;;6.25;3.75;;;;;;;21.94;41.57;100701.75;1731633;81;21880;-81
2023/10/30 09:46:45;;;;;;;10.05;3.25;;;;;;;22.26;41.01;100700.56;1741965;80;22895;-80
2023/10/30 09:49:51;;;;;;;10.28;3.75;;;;;;;22.25;40.86;100701.09;1722837;80;21627;-79
2023/10/30 09:52:58;;;;;;;8.45;3.70;;;;;;;22.43;40.49;100695.91;1742144;80;22582;-81
2023/10/30 09:56:05;;;;;;;15.98;5.92;;;;;;;22.55;40.73;100698.14;1731058;80;21340;-81
2023/10/30 09:59:16;;;;;;;16.95;7.08;;;;;;;22.60;40.53;100702.43;1745516;80;21327;-80
2023/10/30 10:02:18;;;;;;;28.40;8.90;;;;;;;22.64;40.72;100694.43;1735277;80;21335;-80
2023/10/30 10:05:24;;;;;;;22.42;9.10;;;;;;;22.76;40.35;100695.77;1726522;81;21315;-80
2023/10/30 10:08:38;;;;;;;10.93;5.10;;;;;;;22.84;40.48;100693.99;1737477;80;21405;-81
2023/10/30 10:11:47;;;;;;;9.43;4.45;;;;;;;22.84;40.55;100691.20;1736521;81;21355;-82
2023/10/30 10:15:03;;;;;;;10.90;4.22;;;;;;;22.75;40.54;100690.75;1741141;80;21953;-81
2023/10/30 10:18:07;;;;;;;12.15;4.87;;;;;;;22.78;39.95;100688.87;1733007;80;21812;-82
2023/10/30 10:21:14;;;;;;;10.93;4.65;;;;;;;22.82;39.85;100686.41;1728999;81;21375;-82
2023/10/30 10:24:19;;;;;;;8.88;3.72;;;;;;;22.95;39.71;100686.15;1720899;81;21208;-81
2023/10/30 10:27:25;;;;;;;9.73;3.80;;;;;;;23.00;38.58;100691.83;1741671;80;21355;-82
2023/10/30 10:30:32;;;;;;;8.58;3.52;;;;;;;23.05;39.19;100682.16;1733818;80;21354;-81
2023/10/30 10:33:38;;;;;;;8.03;4.08;;;;;;;23.06;39.10;100683.03;1730539;81;21506;-81
2023/10/30 10:36:48;;;;;;;9.95;4.45;;;;;;;23.30;38.60;100680.41;1722831;80;21291;-81
2023/10/30 10:40:01;;;;;;;7.65;3.77;;;;;;;23.14;39.60;100686.79;1729424;81;22369;-82
2023/10/30 10:43:05;;;;;;;13.08;4.53;;;;;;;23.17;39.09;100686.30;1741525;81;21924;-81
2023/10/30 10:46:12;;;;;;;12.13;3.77;;;;;;;23.03;39.46;100676.55;1721783;81;21931;-82
2023/10/30 10:49:18;;;;;;;10.40;3.83;;;;;;;23.16;39.36;100684.06;1734483;81;21732;-81
2023/10/30 10:52:27;;;;;;;11.35;3.75;;;;;;;23.11;40.00;100685.92;1719210;81;21359;-81
2023/10/30 10:55:35;;;;;;;9.90;3.80;;;;;;;23.08;40.39;100673.85;1749264;79;21340;-81
2023/10/30 10:58:54;;;;;;;7.28;3.27;;;;;;;23.08;40.33;100668.27;1733969;79;21326;-81
2023/10/30 11:02:02;;;;;;;5.80;2.62;;;;;;;23.09;39.23;100665.77;1733751;80;21385;-81
2023/10/30 11:05:08;;;;;;;10.60;3.20;;;;;;;23.25;37.80;100654.36;1737033;81;21303;-80
2023/10/30 11:08:33;;;;;;;9.58;3.25;;;;;;;23.06;38.51;100657.37;1745646;81;21337;-81
2023/10/30 11:12:02;;;;;;;11.40;2.42;;;;;;;23.02;38.41;100656.17;1758779;79;21276;-80
2023/10/30 11:15:34;;;;;;;5.55;2.52;;;;;;;22.85;38.73;100658.03;1725868;81;21323;-80
2023/10/30 11:18:41;;;;;;;5.95;2.37;;;;;;;22.88;38.89;100656.16;1742311;80;22320;-80
2023/10/30 11:21:48;;;;;;;3.55;2.40;;;;;;;22.83;38.51;100642.11;1727888;80;21314;-81
2023/10/30 11:24:56;;;;;;;4.87;2.70;;;;;;;22.90;38.05;100643.66;1742487;80;21275;-81
2023/10/30 11:28:02;;;;;;;8.10;2.83;;;;;;;23.05;37.83;100638.08;1731733;81;21341;-81
2023/10/30 11:31:10;;;;;;;9.55;2.70;;;;;;;22.82;38.15;100644.06;1742871;80;21319;-81
2023/10/30 11:34:23;;;;;;;7.47;2.80;;;;;;;22.90;38.55;100647.84;1709088;81;21367;-82
2023/10/30 11:37:29;;;;;;;8.53;2.92;;;;;;;22.82;38.74;100646.84;1734332;80;21311;-82
2023/10/30 11:40:34;;;;;;;11.00;2.85;;;;;;;22.83;38.87;100642.95;1725822;80;21311;-82
2023/10/30 11:43:40;;;;;;;6.15;2.60;;;;;;;22.81;38.32;100640.09;1739424;81;21414;-81
2023/10/30 11:46:48;;;;;;;7.00;2.45;;;;;;;22.81;37.96;100632.58;1729126;81;21875;-81
2023/10/30 11:49:55;;;;;;;10.98;2.95;;;;;;;22.82;38.14;100624.53;1721422;80;21305;-81
2023/10/30 11:53:04;;;;;;;6.45;2.55;;;;;;;22.90;38.03;100623.30;1747327;79;21307;-82
2023/10/30 11:56:09;;;;;;;3.12;2.00;;;;;;;23.02;38.16;100626.89;1734672;80;21405;-81
2023/10/30 11:59:16;;;;;;;6.03;2.37;;;;;;;23.04;37.89;100612.67;1733714;80;21332;-80
2023/10/30 12:02:21;;;;;;;6.15;2.45;;;;;;;23.09;37.21;100614.16;1709196;80;21354;-81
2023/10/30 12:05:30;;;;;;;8.08;2.08;;;;;;;23.21;36.60;100614.95;1725941;80;21360;-81
2023/10/30 12:08:36;;;;;;;6.33;2.37;;;;;;;23.24;36.61;100603.81;1733040;80;21962;-81
2023/10/30 12:11:42;;;;;;;6.05;2.47;;;;;;;23.17;36.59;100602.05;1735652;80;21362;-81
2023/10/30 12:14:50;;;;;;;6.22;2.65;;;;;;;23.11;36.68;100604.45;1744571;80;21359;-82
2023/10/30 12:17:56;;;;;;;7.58;2.83;;;;;;;23.09;36.79;100601.61;1739686;81;21310;-83
2023/10/30 12:21:02;;;;;;;10.18;2.33;;;;;;;23.11;36.72;100594.69;1776097;80;21349;-83
2023/10/30 12:24:07;;;;;;;6.65;2.27;;;;;;;23.08;36.52;100596.58;1722993;80;21319;-81
2023/10/30 12:27:13;;;;;;;9.83;2.50;;;;;;;23.19;36.34;100602.63;1760699;80;21322;-81
2023/10/30 12:30:25;;;;;;;4.05;1.87;;;;;;;23.19;36.65;100592.02;1742912;80;21291;-81
2023/10/30 12:33:31;;;;;;;6.85;2.37;;;;;;;23.06;36.70;100588.18;1724229;81;21306;-81
2023/10/30 12:36:40;;;;;;;4.60;2.17;;;;;;;23.07;36.82;100587.92;1720120;80;22754;-81
2023/10/30 12:39:46;;;;;;;8.68;2.65;;;;;;;23.30;36.94;100592.50;1735268;80;22340;-81
2023/10/30 12:42:55;;;;;;;8.03;2.37;;;;;;;23.13;37.23;100591.09;1723106;81;21358;-81
2023/10/30 12:46:02;;;;;;;2.83;1.85;;;;;;;23.11;37.22;100584.09;1729854;81;21331;-81
2023/10/30 12:49:08;;;;;;;6.85;2.47;;;;;;;23.11;37.32;100577.95;1733545;80;21324;-81
2023/10/30 12:52:14;;;;;;;6.80;2.30;;;;;;;23.07;37.27;100571.73;1756441;80;21865;-81
2023/10/30 12:55:20;;;;;;;8.18;2.40;;;;;;;22.96;37.72;100570.72;1752508;79;21332;-81
2023/10/30 12:58:26;;;;;;;18.67;2.87;;;;;;;23.00;37.73;100569.64;1735301;81;21327;-81
2023/10/30 13:01:34;;;;;;;6.62;2.35;;;;;;;23.24;37.42;100573.95;1733418;80;21381;-81
2023/10/30 13:04:41;;;;;;;5.73;2.30;;;;;;;23.12;37.72;100572.66;1721678;81;22430;-81
2023/10/30 13:07:49;;;;;;;6.45;2.30;;;;;;;23.10;37.62;100562.32;1734470;81;21633;-81
2023/10/30 13:10:56;;;;;;;15.30;5.30;;;;;;;22.89;37.68;100560.26;1749503;81;21329;-81
2023/10/30 13:14:01;;;;;;;15.23;7.15;;;;;;;22.82;37.52;100553.95;1746185;80;22651;-81
2023/10/30 13:17:06;;;;;;;16.57;6.83;;;;;;;22.92;37.21;100562.55;1741846;80;21358;-81
2023/10/30 13:20:13;;;;;;;20.37;7.33;;;;;;;22.97;36.96;100551.48;1759490;81;21407;-81
2023/10/30 13:23:21;;;;;;;19.90;6.47;;;;;;;22.76;37.23;100544.65;1766018;80;21331;-81
2023/10/30 13:26:27;;;;;;;16.77;7.58;;;;;;;22.84;37.17;100540.61;1758337;80;21319;-81
2023/10/30 13:29:32;;;;;;;33.73;12.18;;;;;;;22.80;37.19;100538.03;1746172;81;21968;-81
2023/10/30 13:32:37;;;;;;;53.75;18.98;;;;;;;22.68;37.42;100538.95;1745024;81;21362;-80
2023/10/30 13:35:43;;;;;;;47.15;20.30;;;;;;;22.64;37.74;100528.00;1741674;81;21951;-81
2023/10/30 13:38:47;;;;;;;61.20;24.90;;;;;;;22.55;37.85;100527.27;1732848;81;21328;-80
2023/10/30 13:41:53;;;;;;;90.10;35.75;;;;;;;22.53;37.89;100525.26;1724722;81;21333;-81
2023/10/30 13:45:00;;;;;;;101.58;37.93;;;;;;;22.44;38.12;100522.02;1730255;81;21347;-80
2023/10/30 13:48:06;;;;;;;121.97;42.75;;;;;;;22.32;38.31;100520.70;1743684;81;21973;-81
2023/10/30 13:51:12;;;;;;;111.90;38.95;;;;;;;22.27;38.36;100519.76;1753158;81;21340;-81
2023/10/30 13:54:19;;;;;;;113.85;37.78;;;;;;;22.34;38.19;100518.49;1746091;81;21350;-81
2023/10/30 13:57:26;;;;;;;103.67;39.18;;;;;;;22.34;38.27;100519.05;1753134;81;21367;-81
2023/10/30 14:00:33;;;;;;;78.60;30.50;;;;;;;22.29;38.29;100520.34;1744904;81;21346;-81
2023/10/30 14:03:40;;;;;;;61.88;26.42;;;;;;;22.33;38.17;100517.36;1733560;81;21354;-81
2023/10/30 14:06:46;;;;;;;40.43;16.57;;;;;;;21.99;38.70;100520.55;1752301;80;21324;-81
2023/10/30 14:09:52;;;;;;;25.90;9.73;;;;;;;21.98;38.99;100525.82;1739748;81;21330;-81
2023/10/30 14:12:59;;;;;;;12.95;5.25;;;;;;;21.93;39.17;100515.42;1743419;81;21353;-81